createdAt,value
2023-04-22T00:01:02.841Z,96572.72
2023-04-22T00:03:05.502Z,96568.50
2023-04-22T00:05:09.212Z,96562.34
2023-04-22T00:07:12.624Z,96565.69
2023-04-22T00:09:15.212Z,96564.13
2023-04-22T00:11:18.071Z,96571.03
2023-04-22T00:13:20.613Z,96568.59
2023-04-22T00:15:25.479Z,96571.97
2023-04-22T00:17:28.139Z,96565.78
2023-04-22T00:19:30.761Z,96560.41
2023-04-22T00:21:33.428Z,96563.19
2023-04-22T00:23:36.005Z,96565.03
2023-04-22T00:25:38.552Z,96571.13
2023-04-22T00:27:41.131Z,96562.53
2023-04-22T00:29:43.655Z,96568.13
2023-04-22T00:31:47.679Z,96560.53
2023-04-22T00:33:50.735Z,96560.13
2023-04-22T00:35:54.637Z,96563.91
2023-04-22T00:37:57.353Z,96568.88
2023-04-22T00:39:59.914Z,96560.53
2023-04-22T00:42:03.338Z,96563.03
2023-04-22T00:44:09.299Z,96559.56
2023-04-22T00:46:12.064Z,96559.75
2023-04-22T00:48:16.039Z,96562.72
2023-04-22T00:50:18.647Z,96567.94
2023-04-22T00:52:21.198Z,96560.38
2023-04-22T00:54:23.806Z,96565.72
2023-04-22T00:56:28.310Z,96557.84
2023-04-22T00:58:30.924Z,96559.81
2023-04-22T01:00:33.783Z,96555.50
2023-04-22T01:02:37.329Z,96552.06
2023-04-22T01:04:41.500Z,96555.66
2023-04-22T01:06:44.942Z,96549.63
2023-04-22T01:08:47.848Z,96554.91
2023-04-22T01:10:50.549Z,96546.25
2023-04-22T01:12:53.145Z,96551.28
2023-04-22T01:14:55.824Z,96556.84
2023-04-22T01:16:58.895Z,96549.28
2023-04-22T01:19:01.979Z,96545.00
2023-04-22T01:21:07.072Z,96551.25
2023-04-22T01:23:16.921Z,96556.13
2023-04-22T01:25:19.534Z,96556.63
2023-04-22T01:27:22.346Z,96560.78
2023-04-22T01:29:25.560Z,96563.56
2023-04-22T01:31:28.440Z,96567.78
2023-04-22T01:33:31.196Z,96559.34
2023-04-22T01:35:36.997Z,96558.31
2023-04-22T01:37:40.358Z,96552.41
2023-04-22T01:39:44.305Z,96551.66
2023-04-22T01:41:47.754Z,96551.75
2023-04-22T01:43:51.074Z,96553.44
2023-04-22T01:45:54.630Z,96549.03
2023-04-22T01:47:57.254Z,96557.81
2023-04-22T01:49:59.935Z,96560.34
2023-04-22T01:52:02.557Z,96559.88
2023-04-22T01:54:05.677Z,96559.25
2023-04-22T01:56:10.120Z,96558.66
2023-04-22T01:58:12.654Z,96563.78
2023-04-22T02:00:15.563Z,96567.19
2023-04-22T02:02:18.168Z,96564.59
2023-04-22T02:04:20.802Z,96574.47
2023-04-22T02:06:23.315Z,96568.72
2023-04-22T02:08:25.867Z,96567.81
2023-04-22T02:10:28.378Z,96566.09
2023-04-22T02:12:32.765Z,96561.81
2023-04-22T02:14:35.613Z,96565.44
2023-04-22T02:16:38.183Z,96565.44
2023-04-22T02:18:40.920Z,96569.81
2023-04-22T02:20:43.443Z,96564.91
2023-04-22T02:22:46.337Z,96572.34
2023-04-22T02:24:48.959Z,96565.00
2023-04-22T02:26:51.676Z,96574.47
2023-04-22T02:28:55.567Z,96566.44
2023-04-22T02:30:58.167Z,96574.53
2023-04-22T02:33:01.366Z,96579.84
2023-04-22T02:35:05.261Z,96582.69
2023-04-22T02:37:07.836Z,96578.41
2023-04-22T02:39:10.448Z,96588.84
2023-04-22T02:41:13.004Z,96587.16
2023-04-22T02:43:15.530Z,96582.94
2023-04-22T02:45:19.524Z,96586.38
2023-04-22T02:47:23.458Z,96581.31
2023-04-22T02:49:26.107Z,96583.94
2023-04-22T02:51:28.907Z,96584.03
2023-04-22T02:53:31.438Z,96584.03
2023-04-22T02:55:33.940Z,96589.25
2023-04-22T02:57:36.526Z,96583.44
2023-04-22T02:59:39.279Z,96587.22
2023-04-22T03:01:43.319Z,96582.16
2023-04-22T03:03:46.133Z,96585.84
2023-04-22T03:05:48.747Z,96590.50
2023-04-22T03:07:51.343Z,96587.88
2023-04-22T03:09:55.847Z,96587.56
2023-04-22T03:11:58.391Z,96590.22
2023-04-22T03:14:01.012Z,96584.53
2023-04-22T03:16:03.603Z,96584.78
2023-04-22T03:18:07.556Z,96587.47
2023-04-22T03:20:11.608Z,96582.28
2023-04-22T03:22:14.181Z,96586.06
2023-04-22T03:24:16.734Z,96589.31
2023-04-22T03:26:19.299Z,96583.88
2023-04-22T03:28:21.857Z,96584.97
2023-04-22T03:30:24.653Z,96573.00
2023-04-22T03:32:27.203Z,96575.59
2023-04-22T03:34:31.170Z,96581.75
2023-04-22T03:36:33.714Z,96581.06
2023-04-22T03:38:36.253Z,96592.88
2023-04-22T03:40:38.813Z,96595.78
2023-04-22T03:42:41.385Z,96591.88
2023-04-22T03:44:43.961Z,96598.66
2023-04-22T03:46:46.531Z,96600.69
2023-04-22T03:48:49.626Z,96593.88
2023-04-22T03:50:53.495Z,96600.78
2023-04-22T03:52:56.055Z,96592.25
2023-04-22T03:54:58.586Z,96596.50
2023-04-22T03:57:01.529Z,96597.34
2023-04-22T03:59:04.092Z,96600.84
2023-04-22T04:01:06.651Z,96605.22
2023-04-22T04:03:09.461Z,96605.38
2023-04-22T04:05:12.415Z,96609.44
2023-04-22T04:07:16.698Z,96611.59
2023-04-22T04:09:19.271Z,96611.97
2023-04-22T04:11:21.796Z,96602.00
2023-04-22T04:13:24.322Z,96593.63
2023-04-22T04:15:26.965Z,96589.13
2023-04-22T04:17:29.517Z,96585.19
2023-04-22T04:19:32.096Z,96589.56
2023-04-22T04:21:35.092Z,96591.97
2023-04-22T04:23:38.972Z,96589.53
2023-04-22T04:25:42.782Z,96598.94
2023-04-22T04:27:45.514Z,96601.31
2023-04-22T04:29:48.065Z,96600.63
2023-04-22T04:31:50.800Z,96602.75
2023-04-22T04:33:53.947Z,96600.47
2023-04-22T04:35:56.505Z,96601.28
2023-04-22T04:37:59.268Z,96605.81
2023-04-22T04:40:03.185Z,96598.91
2023-04-22T04:42:05.820Z,96596.56
2023-04-22T04:44:08.384Z,96598.22
2023-04-22T04:46:10.986Z,96593.94
2023-04-22T04:48:14.338Z,96593.88
2023-04-22T04:50:16.978Z,96599.69
2023-04-22T04:52:19.522Z,96598.75
2023-04-22T04:54:22.106Z,96606.50
2023-04-22T04:56:26.071Z,96601.25
2023-04-22T04:58:28.635Z,96604.53
2023-04-22T05:00:31.464Z,96606.22
2023-04-22T05:02:34.124Z,96595.72
2023-04-22T05:04:36.864Z,96592.13
2023-04-22T05:06:39.577Z,96584.97
2023-04-22T05:08:42.133Z,96581.38
2023-04-22T05:10:45.109Z,96583.97
2023-04-22T05:12:51.164Z,96589.13
2023-04-22T05:14:54.249Z,96586.34
2023-04-22T05:16:56.938Z,96593.81
2023-04-22T05:18:59.526Z,96596.50
2023-04-22T05:21:04.145Z,96589.56
2023-04-22T05:23:06.680Z,96589.53
2023-04-22T05:25:10.282Z,96589.03
2023-04-22T05:27:13.079Z,96594.50
2023-04-22T05:29:17.073Z,96597.97
2023-04-22T05:31:19.717Z,96603.88
2023-04-22T05:33:22.340Z,96600.41
2023-04-22T05:35:24.926Z,96598.56
2023-04-22T05:37:27.576Z,96601.16
2023-04-22T05:39:30.255Z,96597.53
2023-04-22T05:41:32.812Z,96602.84
2023-04-22T05:43:35.373Z,96601.00
2023-04-22T05:45:39.453Z,96599.16
2023-04-22T05:47:42.045Z,96595.53
2023-04-22T05:49:44.634Z,96601.47
2023-04-22T05:51:47.328Z,96600.63
2023-04-22T05:53:50.011Z,96609.00
2023-04-22T05:55:52.549Z,96599.22
2023-04-22T05:57:58.031Z,96604.50
2023-04-22T06:00:01.339Z,96608.19
2023-04-22T06:02:05.331Z,96602.03
2023-04-22T06:04:10.053Z,96613.25
2023-04-22T06:06:12.963Z,96604.94
2023-04-22T06:08:16.144Z,96611.09
2023-04-22T06:10:18.700Z,96611.19
2023-04-22T06:12:21.619Z,96613.72
2023-04-22T06:14:24.180Z,96611.69
2023-04-22T06:16:28.794Z,96607.84
2023-04-22T06:18:33.836Z,96607.94
2023-04-22T06:20:37.507Z,96607.69
2023-04-22T06:22:40.133Z,96611.75
2023-04-22T06:24:42.919Z,96609.63
2023-04-22T06:26:45.575Z,96608.69
2023-04-22T06:28:48.119Z,96604.53
2023-04-22T06:30:50.744Z,96607.97
2023-04-22T06:32:56.066Z,96606.97
2023-04-22T06:34:59.951Z,96613.63
2023-04-22T06:37:02.503Z,96611.03
2023-04-22T06:39:05.667Z,96611.84
2023-04-22T06:41:08.204Z,96603.44
2023-04-22T06:43:10.726Z,96604.13
2023-04-22T06:45:13.496Z,96613.91
2023-04-22T06:47:16.075Z,96612.22
2023-04-22T06:49:18.599Z,96613.50
2023-04-22T06:51:22.672Z,96616.97
2023-04-22T06:53:25.319Z,96613.50
2023-04-22T06:55:27.880Z,96610.78
2023-04-22T06:57:30.553Z,96611.72
2023-04-22T06:59:33.088Z,96610.13
2023-04-22T07:01:35.729Z,96611.28
2023-04-22T07:03:38.490Z,96616.78
2023-04-22T07:05:41.196Z,96617.28
2023-04-22T07:07:45.155Z,96615.03
2023-04-22T07:09:47.688Z,96605.56
2023-04-22T07:11:50.296Z,96610.59
2023-04-22T07:13:52.806Z,96611.63
2023-04-22T07:15:55.558Z,96607.19
2023-04-22T07:17:58.243Z,96607.91
2023-04-22T07:20:00.953Z,96603.44
2023-04-22T07:22:04.197Z,96600.66
2023-04-22T07:24:11.827Z,96592.81
2023-04-22T07:26:14.663Z,96599.63
2023-04-22T07:28:17.225Z,96589.84
2023-04-22T07:30:19.833Z,96592.38
2023-04-22T07:32:22.528Z,96594.66
2023-04-22T07:34:25.101Z,96592.97
2023-04-22T07:36:27.797Z,96595.25
2023-04-22T07:38:30.385Z,96597.84
2023-04-22T07:40:34.317Z,96603.09
2023-04-22T07:42:38.311Z,96599.00
2023-04-22T07:44:40.934Z,96600.88
2023-04-22T07:46:43.551Z,96595.72
2023-04-22T07:48:46.198Z,96601.63
2023-04-22T07:50:48.749Z,96601.53
2023-04-22T07:52:51.400Z,96604.16
2023-04-22T07:54:53.953Z,96603.06
2023-04-22T07:56:58.309Z,96617.53
2023-04-22T07:59:00.876Z,96618.47
2023-04-22T08:01:03.548Z,96625.56
2023-04-22T08:03:06.484Z,96621.09
2023-04-22T08:05:09.466Z,96615.38
2023-04-22T08:07:30.779Z,96618.28
2023-04-22T08:09:34.640Z,96619.31
2023-04-22T08:11:37.376Z,96621.19
2023-04-22T08:13:41.297Z,96625.09
2023-04-22T08:15:43.924Z,96617.22
2023-04-22T08:17:46.504Z,96618.00
2023-04-22T08:19:49.469Z,96617.41
2023-04-22T08:21:51.994Z,96624.19
2023-04-22T08:23:55.052Z,96618.78
2023-04-22T08:25:57.590Z,96621.47
2023-04-22T08:28:00.158Z,96616.09
2023-04-22T08:30:04.599Z,96615.88
2023-04-22T08:32:07.146Z,96609.25
2023-04-22T08:34:09.729Z,96613.03
2023-04-22T08:36:12.364Z,96608.69
2023-04-22T08:38:15.579Z,96598.88
2023-04-22T08:40:18.165Z,96602.44
2023-04-22T08:42:21.300Z,96600.28
2023-04-22T08:44:24.466Z,96604.97
2023-04-22T08:46:28.750Z,96596.38
2023-04-22T08:48:31.518Z,96591.59
2023-04-22T08:50:34.157Z,96596.16
2023-04-22T08:52:36.808Z,96590.09
2023-04-22T08:54:39.400Z,96585.69
2023-04-22T08:56:44.376Z,96584.78
2023-04-22T08:58:47.050Z,96589.16
2023-04-22T09:00:49.676Z,96588.97
2023-04-22T09:02:54.709Z,96586.34
2023-04-22T09:04:57.411Z,96590.66
2023-04-22T09:07:00.825Z,96585.25
2023-04-22T09:09:03.418Z,96579.44
2023-04-22T09:11:06.162Z,96584.13
2023-04-22T09:13:08.751Z,96585.97
2023-04-22T09:15:12.823Z,96589.94
2023-04-22T09:17:17.011Z,96579.78
2023-04-22T09:19:25.362Z,96585.09
2023-04-22T09:21:28.633Z,96574.06
2023-04-22T09:23:31.371Z,96577.78
2023-04-22T09:25:35.993Z,96579.75
2023-04-22T09:27:38.552Z,96566.16
2023-04-22T09:29:49.245Z,96571.72
2023-04-22T09:31:51.988Z,96570.84
2023-04-22T09:33:57.512Z,96569.16
2023-04-22T09:36:09.965Z,96569.53
2023-04-22T09:38:13.762Z,96573.25
2023-04-22T09:40:16.957Z,96588.47
2023-04-22T09:42:20.123Z,96574.78
2023-04-22T09:44:22.658Z,96579.66
2023-04-22T09:46:26.750Z,96574.19
2023-04-22T09:48:29.306Z,96567.16
2023-04-22T09:50:33.904Z,96568.84
2023-04-22T09:52:37.751Z,96564.44
2023-04-22T09:54:40.743Z,96564.34
2023-04-22T09:56:48.052Z,96557.31
2023-04-22T09:58:53.740Z,96549.22
2023-04-22T10:00:57.777Z,96552.69
2023-04-22T10:03:00.728Z,96549.22
2023-04-22T10:05:03.544Z,96547.69
2023-04-22T10:07:06.976Z,96544.03
2023-04-22T10:09:12.252Z,96544.06
2023-04-22T10:11:15.020Z,96539.31
2023-04-22T10:13:17.627Z,96540.16
2023-04-22T10:15:20.438Z,96540.28
2023-04-22T10:17:23.468Z,96542.03
2023-04-22T10:19:27.321Z,96541.13
2023-04-22T10:21:32.335Z,96534.16
2023-04-22T10:23:34.975Z,96535.13
2023-04-22T10:25:41.274Z,96534.16
2023-04-22T10:27:43.854Z,96525.38
2023-04-22T10:29:46.423Z,96528.69
2023-04-22T10:31:56.904Z,96529.31
2023-04-22T10:34:10.455Z,96524.72
2023-04-22T10:36:18.100Z,96527.22
2023-04-22T10:38:20.671Z,96520.47
2023-04-22T10:40:23.797Z,96514.75
2023-04-22T10:42:29.635Z,96521.19
2023-04-22T10:44:47.494Z,96515.50
2023-04-22T10:47:00.995Z,96513.19
2023-04-22T10:49:08.142Z,96509.97
2023-04-22T10:51:39.384Z,96512.38
2023-04-22T10:53:42.724Z,96511.88
2023-04-22T10:55:53.026Z,96506.28
2023-04-22T10:57:57.077Z,96514.16
2023-04-22T11:00:00.351Z,96514.78
2023-04-22T11:02:03.582Z,96510.38
2023-04-22T11:04:22.984Z,96516.47
2023-04-22T11:06:27.884Z,96520.34
2023-04-22T11:08:30.426Z,96520.34
2023-04-22T11:10:42.985Z,96520.72
2023-04-22T11:12:46.486Z,96520.44
2023-04-22T11:14:51.027Z,96517.44
2023-04-22T11:16:53.847Z,96511.03
2023-04-22T11:18:57.672Z,96511.63
2023-04-22T11:21:06.230Z,96512.97
2023-04-22T11:23:08.820Z,96504.00
2023-04-22T11:25:12.119Z,96508.22
2023-04-22T11:27:14.672Z,96512.75
2023-04-22T11:29:17.202Z,96509.31
2023-04-22T11:31:21.518Z,96495.94
2023-04-22T11:33:24.137Z,96502.88
2023-04-22T11:35:29.142Z,96504.09
2023-04-22T11:37:31.706Z,96493.47
2023-04-22T11:39:43.588Z,96486.72
2023-04-22T11:41:52.927Z,96490.84
2023-04-22T11:43:55.701Z,96488.81
2023-04-22T11:45:58.846Z,96485.41
2023-04-22T11:48:04.276Z,96494.50
2023-04-22T11:50:09.991Z,96489.09
2023-04-22T11:52:12.582Z,96496.16
2023-04-22T11:54:15.132Z,96496.03
2023-04-22T11:56:17.684Z,96490.88
2023-04-22T11:58:24.757Z,96488.25
2023-04-22T12:00:31.463Z,96493.13
2023-04-22T12:02:34.153Z,96488.19
2023-04-22T12:04:39.776Z,96488.53
2023-04-22T12:06:42.432Z,96487.00
2023-04-22T12:08:47.280Z,96483.66
2023-04-22T12:10:51.676Z,96490.25
2023-04-22T12:12:55.384Z,96486.69
2023-04-22T12:14:58.888Z,96489.09
2023-04-22T12:17:05.279Z,96488.66
2023-04-22T12:19:07.934Z,96486.13
2023-04-22T12:21:13.020Z,96481.00
2023-04-22T12:23:16.662Z,96482.72
2023-04-22T12:25:20.403Z,96482.91
2023-04-22T12:27:22.974Z,96484.25
2023-04-22T12:29:31.141Z,96476.31
2023-04-22T12:31:33.942Z,96485.56
2023-04-22T12:33:37.620Z,96482.78
2023-04-22T12:35:40.232Z,96482.25
2023-04-22T12:37:44.377Z,96485.09
2023-04-22T12:39:47.021Z,96477.69
2023-04-22T12:41:50.992Z,96482.03
2023-04-22T12:43:55.173Z,96481.47
2023-04-22T12:45:57.759Z,96479.94
2023-04-22T12:48:00.626Z,96476.72
2023-04-22T12:50:06.407Z,96470.72
2023-04-22T12:52:08.923Z,96481.47
2023-04-22T12:54:12.802Z,96476.88
2023-04-22T12:56:15.507Z,96480.31
2023-04-22T12:58:18.637Z,96480.19
2023-04-22T13:00:21.729Z,96475.75
2023-04-22T13:02:24.420Z,96480.53
2023-04-22T13:04:27.151Z,96486.41
2023-04-22T13:06:29.915Z,96480.91
2023-04-22T13:08:32.507Z,96475.28
2023-04-22T13:10:36.584Z,96474.97
2023-04-22T13:12:39.868Z,96475.91
2023-04-22T13:14:42.710Z,96479.22
2023-04-22T13:16:45.691Z,96471.81
2023-04-22T13:18:48.239Z,96469.44
2023-04-22T13:20:51.126Z,96472.63
2023-04-22T13:22:53.805Z,96472.41
2023-04-22T13:24:56.507Z,96463.59
2023-04-22T13:27:01.424Z,96470.19
2023-04-22T13:29:04.069Z,96472.47
2023-04-22T13:31:06.684Z,96477.03
2023-04-22T13:33:09.222Z,96470.03
2023-04-22T13:35:11.814Z,96471.00
2023-04-22T13:37:16.344Z,96472.16
2023-04-22T13:39:20.657Z,96473.78
2023-04-22T13:41:23.534Z,96471.50
2023-04-22T13:43:27.475Z,96467.13
2023-04-22T13:45:30.157Z,96468.41
2023-04-22T13:47:32.768Z,96470.06
2023-04-22T13:49:35.915Z,96468.94
2023-04-22T13:51:39.615Z,96467.50
2023-04-22T13:53:42.201Z,96475.81
2023-04-22T13:55:44.787Z,96473.50
2023-04-22T13:57:47.627Z,96470.63
2023-04-22T13:59:51.590Z,96473.72
2023-04-22T14:01:54.136Z,96481.63
2023-04-22T14:03:57.032Z,96474.22
2023-04-22T14:06:01.026Z,96474.28
2023-04-22T14:08:03.600Z,96473.66
2023-04-22T14:10:08.419Z,96477.31
2023-04-22T14:12:12.106Z,96469.97
2023-04-22T14:14:14.677Z,96466.03
2023-04-22T14:16:19.591Z,96468.00
2023-04-22T14:18:23.357Z,96469.53
2023-04-22T14:20:26.088Z,96470.78
2023-04-22T14:22:28.635Z,96469.63
2023-04-22T14:24:31.634Z,96462.41
2023-04-22T14:26:34.228Z,96466.34
2023-04-22T14:28:37.771Z,96464.03
2023-04-22T14:30:40.547Z,96459.50
2023-04-22T14:32:45.084Z,96465.19
2023-04-22T14:34:47.794Z,96453.59
2023-04-22T14:36:50.480Z,96463.84
2023-04-22T14:38:53.083Z,96469.75
2023-04-22T14:40:55.662Z,96469.97
2023-04-22T14:42:59.482Z,96474.44
2023-04-22T14:45:02.082Z,96468.22
2023-04-22T14:47:04.817Z,96469.75
2023-04-22T14:49:08.742Z,96465.88
2023-04-22T14:51:11.993Z,96479.03
2023-04-22T14:53:14.631Z,96480.09
2023-04-22T14:55:23.315Z,96462.78
2023-04-22T14:57:26.525Z,96472.06
2023-04-22T14:59:29.079Z,96470.09
2023-04-22T15:01:32.729Z,96461.50
2023-04-22T15:03:36.103Z,96470.47
2023-04-22T15:05:43.178Z,96467.22
2023-04-22T15:07:45.749Z,96468.66
2023-04-22T15:09:48.279Z,96463.97
2023-04-22T15:11:51.067Z,96455.97
2023-04-22T15:13:53.616Z,96467.81
2023-04-22T15:15:56.161Z,96462.88
2023-04-22T15:17:58.896Z,96471.22
2023-04-22T15:20:05.245Z,96469.50
2023-04-22T15:22:10.046Z,96469.75
2023-04-22T15:24:12.607Z,96465.56
2023-04-22T15:26:15.769Z,96475.09
2023-04-22T15:28:18.411Z,96475.88
2023-04-22T15:30:20.947Z,96479.22
2023-04-22T15:32:23.480Z,96481.78
2023-04-22T15:34:26.125Z,96480.31
2023-04-22T15:36:28.799Z,96478.13
2023-04-22T15:38:32.678Z,96477.53
2023-04-22T15:40:35.259Z,96482.19
2023-04-22T15:42:37.841Z,96481.16
2023-04-22T15:44:40.684Z,96479.94
2023-04-22T15:46:43.422Z,96478.91
2023-04-22T15:48:47.317Z,96490.06
2023-04-22T15:50:49.844Z,96487.03
2023-04-22T15:52:52.401Z,96481.53
2023-04-22T15:54:56.385Z,96491.66
2023-04-22T15:56:58.957Z,96487.03
2023-04-22T15:59:01.570Z,96485.09
2023-04-22T16:01:15.342Z,96486.75
2023-04-22T16:03:21.249Z,96486.44
2023-04-22T16:05:24.944Z,96486.69
2023-04-22T16:07:27.993Z,96486.00
2023-04-22T16:09:30.560Z,96486.31
2023-04-22T16:11:34.432Z,96489.03
2023-04-22T16:13:38.820Z,96483.19
2023-04-22T16:15:41.663Z,96491.66
2023-04-22T16:17:44.378Z,96492.63
2023-04-22T16:19:46.994Z,96490.97
2023-04-22T16:21:52.232Z,96493.28
2023-04-22T16:23:54.765Z,96489.53
2023-04-22T16:25:58.398Z,96491.97
2023-04-22T16:28:04.909Z,96502.06
2023-04-22T16:30:08.719Z,96492.16
2023-04-22T16:32:11.286Z,96490.72
2023-04-22T16:34:13.880Z,96500.09
2023-04-22T16:36:16.488Z,96498.34
2023-04-22T16:38:19.059Z,96496.16
2023-04-22T16:40:21.858Z,96494.09
2023-04-22T16:42:24.477Z,96492.94
2023-04-22T16:44:28.319Z,96494.19
2023-04-22T16:46:30.909Z,96487.06
2023-04-22T16:48:33.565Z,96494.41
2023-04-22T16:50:36.142Z,96488.44
2023-04-22T16:52:38.696Z,96497.00
2023-04-22T16:54:42.437Z,96493.59
2023-04-22T16:56:44.989Z,96504.59
2023-04-22T16:58:47.542Z,96504.25
2023-04-22T17:00:51.483Z,96499.63
2023-04-22T17:02:54.140Z,96502.22
2023-04-22T17:04:56.740Z,96506.00
2023-04-22T17:06:59.263Z,96502.00
2023-04-22T17:09:01.779Z,96502.72
2023-04-22T17:11:04.459Z,96508.72
2023-04-22T17:13:07.218Z,96512.63
2023-04-22T17:15:10.373Z,96516.47
2023-04-22T17:17:14.635Z,96515.13
2023-04-22T17:19:17.163Z,96513.97
2023-04-22T17:21:19.820Z,96511.00
2023-04-22T17:23:22.998Z,96519.84
2023-04-22T17:25:25.550Z,96513.63
2023-04-22T17:27:28.169Z,96509.69
2023-04-22T17:29:30.829Z,96515.78
2023-04-22T17:31:34.147Z,96523.38
2023-04-22T17:33:38.072Z,96525.75
2023-04-22T17:35:40.596Z,96521.09
2023-04-22T17:37:43.147Z,96532.00
2023-04-22T17:39:45.704Z,96529.75
2023-04-22T17:41:48.287Z,96532.41
2023-04-22T17:43:51.175Z,96524.47
2023-04-22T17:45:53.807Z,96532.28
2023-04-22T17:47:56.510Z,96530.22
2023-04-22T17:50:00.871Z,96539.72
2023-04-22T17:52:03.407Z,96539.72
2023-04-22T17:54:06.091Z,96540.78
2023-04-22T17:56:08.713Z,96550.38
2023-04-22T17:58:11.300Z,96553.50
2023-04-22T18:00:15.399Z,96564.63
2023-04-22T18:02:18.038Z,96563.56
2023-04-22T18:04:21.031Z,96572.75
2023-04-22T18:06:25.063Z,96581.41
2023-04-22T18:08:28.024Z,96585.56
2023-04-22T18:10:31.403Z,96584.38
2023-04-22T18:12:35.088Z,96596.16
2023-04-22T18:14:37.661Z,96618.47
2023-04-22T18:16:40.248Z,96618.34
2023-04-22T18:18:42.925Z,96615.31
2023-04-22T18:20:45.658Z,96620.59
2023-04-22T18:22:51.985Z,96625.03
2023-04-22T18:24:54.566Z,96626.94
2023-04-22T18:26:57.118Z,96632.69
2023-04-22T18:28:59.658Z,96622.38
2023-04-22T18:31:02.290Z,96631.13
2023-04-22T18:33:05.394Z,96631.44
2023-04-22T18:35:09.181Z,96634.78
2023-04-22T18:37:11.704Z,96637.03
2023-04-22T18:39:16.464Z,96634.06
2023-04-22T18:41:19.030Z,96637.16
2023-04-22T18:43:21.620Z,96640.75
2023-04-22T18:45:24.231Z,96643.56
2023-04-22T18:47:26.898Z,96647.00
2023-04-22T18:49:33.482Z,96653.91
2023-04-22T18:51:36.302Z,96665.44
2023-04-22T18:53:38.830Z,96663.41
2023-04-22T18:55:42.718Z,96659.78
2023-04-22T18:57:45.244Z,96663.75
2023-04-22T18:59:48.429Z,96668.28
2023-04-22T19:01:51.119Z,96654.22
2023-04-22T19:03:54.942Z,96643.91
2023-04-22T19:05:57.614Z,96646.13
2023-04-22T19:08:00.181Z,96647.84
2023-04-22T19:10:02.795Z,96647.97
2023-04-22T19:12:14.286Z,96664.25
2023-04-22T19:14:17.357Z,96658.03
2023-04-22T19:16:20.056Z,96661.84
2023-04-22T19:18:22.657Z,96661.28
2023-04-22T19:20:25.413Z,96662.03
2023-04-22T19:22:29.224Z,96671.00
2023-04-22T19:24:33.775Z,96676.66
2023-04-22T19:26:38.910Z,96678.91
2023-04-22T19:28:47.044Z,96676.16
2023-04-22T19:30:49.664Z,96675.75
2023-04-22T19:32:52.242Z,96674.69
2023-04-22T19:34:55.061Z,96676.69
2023-04-22T19:36:57.598Z,96677.59
2023-04-22T19:39:00.237Z,96674.06
2023-04-22T19:41:03.256Z,96676.78
2023-04-22T19:43:05.776Z,96665.31
2023-04-22T19:45:11.404Z,96656.69
2023-04-22T19:47:15.360Z,96640.06
2023-04-22T19:49:18.556Z,96639.25
2023-04-22T19:51:22.308Z,96640.06
2023-04-22T19:53:25.539Z,96641.97
2023-04-22T19:55:28.328Z,96638.63
2023-04-22T19:57:31.373Z,96641.34
2023-04-22T19:59:34.809Z,96641.44
2023-04-22T20:01:39.355Z,96644.06
2023-04-22T20:03:43.430Z,96632.84
2023-04-22T20:05:47.090Z,96621.38
2023-04-22T20:07:50.736Z,96629.13
2023-04-22T20:09:54.103Z,96623.56
2023-04-22T20:11:57.042Z,96629.88
2023-04-22T20:14:00.328Z,96623.88
2023-04-22T20:16:03.888Z,96642.28
2023-04-22T20:18:09.252Z,96636.91
2023-04-22T20:20:15.162Z,96636.63
2023-04-22T20:22:18.626Z,96634.63
2023-04-22T20:24:21.913Z,96631.69
2023-04-22T20:26:25.278Z,96638.81
2023-04-22T20:28:43.403Z,96627.69
2023-04-22T20:30:46.610Z,96633.56
2023-04-22T20:32:49.395Z,96626.84
2023-04-22T20:34:54.059Z,96626.94
2023-04-22T20:36:56.723Z,96626.19
2023-04-22T20:39:05.134Z,96618.44
2023-04-22T20:41:09.793Z,96621.06
2023-04-22T20:43:12.915Z,96618.31
2023-04-22T20:45:17.830Z,96619.28
2023-04-22T20:47:20.667Z,96616.75
2023-04-22T20:49:23.230Z,96627.25
2023-04-22T20:51:28.343Z,96614.13
2023-04-22T20:53:30.964Z,96623.69
2023-04-22T20:55:35.644Z,96609.81
2023-04-22T20:57:39.628Z,96615.91
2023-04-22T20:59:42.241Z,96615.06
2023-04-22T21:01:45.232Z,96615.63
2023-04-22T21:03:51.730Z,96611.50
2023-04-22T21:05:54.731Z,96615.50
2023-04-22T21:08:01.550Z,96613.28
2023-04-22T21:10:04.606Z,96609.06
2023-04-22T21:12:08.052Z,96608.97
2023-04-22T21:14:11.599Z,96610.66
2023-04-22T21:16:14.849Z,96605.91
2023-04-22T21:18:22.024Z,96607.69
2023-04-22T21:20:27.019Z,96608.13
2023-04-22T21:22:30.521Z,96602.13
2023-04-22T21:24:35.767Z,96606.63
2023-04-22T21:26:40.045Z,96603.28
2023-04-22T21:28:44.392Z,96595.59
2023-04-22T21:30:47.510Z,96605.25
2023-04-22T21:32:50.092Z,96609.59
2023-04-22T21:34:52.873Z,96606.13
2023-04-22T21:36:55.448Z,96608.75
2023-04-22T21:38:58.457Z,96607.06
2023-04-22T21:41:02.405Z,96611.34
2023-04-22T21:43:06.099Z,96610.63
2023-04-22T21:45:09.434Z,96612.94
2023-04-22T21:47:11.969Z,96611.16
2023-04-22T21:49:14.523Z,96607.06
2023-04-22T21:51:17.121Z,96606.31
2023-04-22T21:53:20.657Z,96611.56
2023-04-22T21:55:23.386Z,96602.97
2023-04-22T21:57:27.376Z,96603.88
2023-04-22T21:59:29.993Z,96605.78
2023-04-22T22:01:32.878Z,96612.91
2023-04-22T22:03:36.273Z,96616.69
2023-04-22T22:05:39.299Z,96610.78
2023-04-22T22:07:42.215Z,96613.13
2023-04-22T22:09:45.090Z,96617.91
2023-04-22T22:11:47.624Z,96616.16
2023-04-22T22:13:51.912Z,96615.50
2023-04-22T22:15:57.140Z,96610.34
2023-04-22T22:17:59.767Z,96613.63
2023-04-22T22:20:02.564Z,96615.59
2023-04-22T22:22:05.188Z,96615.59
2023-04-22T22:24:10.541Z,96622.25
2023-04-22T22:26:13.246Z,96626.44
2023-04-22T22:28:15.808Z,96623.81
2023-04-22T22:30:21.663Z,96620.63
2023-04-22T22:32:24.268Z,96618.63
2023-04-22T22:34:26.806Z,96625.97
2023-04-22T22:36:29.320Z,96627.38
2023-04-22T22:38:31.910Z,96623.16
2023-04-22T22:40:34.461Z,96625.78
2023-04-22T22:42:37.110Z,96621.78
2023-04-22T22:44:39.790Z,96629.78
2023-04-22T22:46:43.889Z,96623.69
2023-04-22T22:48:46.505Z,96622.72
2023-04-22T22:50:49.068Z,96627.78
2023-04-22T22:52:51.734Z,96622.75
2023-04-22T22:54:54.387Z,96627.88
2023-04-22T22:56:57.721Z,96626.31
2023-04-22T22:59:00.567Z,96620.53
2023-04-22T23:01:03.205Z,96629.56
2023-04-22T23:03:07.400Z,96619.59
2023-04-22T23:05:11.097Z,96613.81
2023-04-22T23:07:14.614Z,96616.09
2023-04-22T23:09:19.010Z,96617.16
2023-04-22T23:11:21.580Z,96614.94
2023-04-22T23:13:24.128Z,96612.63
2023-04-22T23:15:28.859Z,96614.84
2023-04-22T23:17:31.449Z,96614.13
2023-04-22T23:19:36.018Z,96614.72
2023-04-22T23:21:39.857Z,96612.94
2023-04-22T23:23:42.677Z,96601.81
2023-04-22T23:25:46.511Z,96607.25
2023-04-22T23:27:49.688Z,96611.69
2023-04-22T23:29:52.790Z,96600.78
2023-04-22T23:31:57.393Z,96604.97
2023-04-22T23:34:03.361Z,96602.25
2023-04-22T23:36:10.376Z,96598.97
2023-04-22T23:38:12.918Z,96597.84
2023-04-22T23:40:15.533Z,96602.97
2023-04-22T23:42:18.058Z,96595.72
2023-04-22T23:44:20.877Z,96603.69
2023-04-22T23:46:23.617Z,96597.28
2023-04-22T23:48:26.191Z,96598.63
2023-04-22T23:50:29.563Z,96592.25
2023-04-22T23:52:37.343Z,96602.31
2023-04-22T23:54:40.799Z,96595.16
2023-04-22T23:56:44.336Z,96601.53
2023-04-22T23:58:47.362Z,96596.19
